sensor_id;sensor_type;location;lat;lon;timestamp;temperature;humidity
25046;DHT22;13044;49.304;12.840;2023-10-31T00:01:21;13.50;99.90
25046;DHT22;13044;49.304;12.840;2023-10-31T00:03:48;13.50;99.90
25046;DHT22;13044;49.304;12.840;2023-10-31T00:06:15;13.50;99.90
25046;DHT22;13044;49.304;12.840;2023-10-31T00:08:42;13.50;99.90
25046;DHT22;13044;49.304;12.840;2023-10-31T00:11:09;13.50;99.90
25046;DHT22;13044;49.304;12.840;2023-10-31T00:13:35;13.40;99.90
25046;DHT22;13044;49.304;12.840;2023-10-31T00:16:03;13.40;99.90
25046;DHT22;13044;49.304;12.840;2023-10-31T00:18:30;13.30;99.90
25046;DHT22;13044;49.304;12.840;2023-10-31T00:20:56;13.30;99.90
25046;DHT22;13044;49.304;12.840;2023-10-31T00:23:23;13.20;99.90
25046;DHT22;13044;49.304;12.840;2023-10-31T00:25:51;13.20;99.90
25046;DHT22;13044;49.304;12.840;2023-10-31T00:28:18;13.20;99.90
25046;DHT22;13044;49.304;12.840;2023-10-31T00:30:44;13.10;99.90
25046;DHT22;13044;49.304;12.840;2023-10-31T00:33:11;13.10;99.90
25046;DHT22;13044;49.304;12.840;2023-10-31T00:35:38;13.10;99.90
25046;DHT22;13044;49.304;12.840;2023-10-31T00:38:05;13.00;99.90
25046;DHT22;13044;49.304;12.840;2023-10-31T00:40:32;13.00;99.90
25046;DHT22;13044;49.304;12.840;2023-10-31T00:42:59;12.90;99.90
25046;DHT22;13044;49.304;12.840;2023-10-31T00:45:27;12.90;99.90
25046;DHT22;13044;49.304;12.840;2023-10-31T00:47:54;12.90;99.90
25046;DHT22;13044;49.304;12.840;2023-10-31T00:50:21;12.80;99.90
25046;DHT22;13044;49.304;12.840;2023-10-31T00:52:48;12.70;99.90
25046;DHT22;13044;49.304;12.840;2023-10-31T00:55:14;12.70;99.90
25046;DHT22;13044;49.304;12.840;2023-10-31T00:57:41;12.70;99.90
25046;DHT22;13044;49.304;12.840;2023-10-31T01:00:08;12.70;99.90
25046;DHT22;13044;49.304;12.840;2023-10-31T01:02:36;12.70;99.90
25046;DHT22;13044;49.304;12.840;2023-10-31T01:05:03;12.70;99.90
25046;DHT22;13044;49.304;12.840;2023-10-31T01:07:30;12.70;99.90
25046;DHT22;13044;49.304;12.840;2023-10-31T01:09:57;12.70;99.90
25046;DHT22;13044;49.304;12.840;2023-10-31T01:12:24;12.70;99.90
25046;DHT22;13044;49.304;12.840;2023-10-31T01:14:52;12.70;99.90
25046;DHT22;13044;49.304;12.840;2023-10-31T01:17:19;12.60;99.90
25046;DHT22;13044;49.304;12.840;2023-10-31T01:19:46;12.60;99.90
25046;DHT22;13044;49.304;12.840;2023-10-31T01:22:13;12.60;99.90
25046;DHT22;13044;49.304;12.840;2023-10-31T01:24:40;12.60;99.90
25046;DHT22;13044;49.304;12.840;2023-10-31T01:27:07;12.70;99.90
25046;DHT22;13044;49.304;12.840;2023-10-31T01:29:34;12.60;99.90
25046;DHT22;13044;49.304;12.840;2023-10-31T01:32:01;12.60;99.90
25046;DHT22;13044;49.304;12.840;2023-10-31T01:34:35;12.60;99.90
25046;DHT22;13044;49.304;12.840;2023-10-31T01:37:02;12.60;99.90
25046;DHT22;13044;49.304;12.840;2023-10-31T01:39:28;12.60;99.90
25046;DHT22;13044;49.304;12.840;2023-10-31T01:41:55;12.50;99.90
25046;DHT22;13044;49.304;12.840;2023-10-31T01:44:22;12.50;99.90
25046;DHT22;13044;49.304;12.840;2023-10-31T01:46:49;12.60;99.90
25046;DHT22;13044;49.304;12.840;2023-10-31T01:49:16;12.60;99.90
25046;DHT22;13044;49.304;12.840;2023-10-31T01:51:44;12.60;99.90
25046;DHT22;13044;49.304;12.840;2023-10-31T01:54:13;12.60;99.90
25046;DHT22;13044;49.304;12.840;2023-10-31T01:56:42;12.60;99.90
25046;DHT22;13044;49.304;12.840;2023-10-31T01:59:09;12.50;99.90
25046;DHT22;13044;49.304;12.840;2023-10-31T02:01:38;12.50;99.90
25046;DHT22;13044;49.304;12.840;2023-10-31T02:04:08;12.50;99.90
25046;DHT22;13044;49.304;12.840;2023-10-31T02:06:35;12.60;99.90
25046;DHT22;13044;49.304;12.840;2023-10-31T02:09:02;12.50;99.90
25046;DHT22;13044;49.304;12.840;2023-10-31T02:11:29;12.50;99.90
25046;DHT22;13044;49.304;12.840;2023-10-31T02:13:56;12.60;99.90
25046;DHT22;13044;49.304;12.840;2023-10-31T02:16:22;12.50;99.90
25046;DHT22;13044;49.304;12.840;2023-10-31T02:18:49;12.50;99.90
25046;DHT22;13044;49.304;12.840;2023-10-31T02:21:19;12.40;99.90
25046;DHT22;13044;49.304;12.840;2023-10-31T02:24:00;12.40;99.90
25046;DHT22;13044;49.304;12.840;2023-10-31T02:26:30;12.50;99.90
25046;DHT22;13044;49.304;12.840;2023-10-31T02:28:57;12.50;99.90
25046;DHT22;13044;49.304;12.840;2023-10-31T02:31:25;12.50;99.90
25046;DHT22;13044;49.304;12.840;2023-10-31T02:33:52;12.50;99.90
25046;DHT22;13044;49.304;12.840;2023-10-31T02:36:20;12.50;99.90
25046;DHT22;13044;49.304;12.840;2023-10-31T02:38:47;12.30;99.90
25046;DHT22;13044;49.304;12.840;2023-10-31T02:41:14;12.30;99.90
25046;DHT22;13044;49.304;12.840;2023-10-31T02:43:42;12.40;99.90
25046;DHT22;13044;49.304;12.840;2023-10-31T02:46:09;12.30;99.90
25046;DHT22;13044;49.304;12.840;2023-10-31T02:48:38;12.30;99.90
25046;DHT22;13044;49.304;12.840;2023-10-31T02:51:07;12.40;99.90
25046;DHT22;13044;49.304;12.840;2023-10-31T02:53:35;12.40;99.90
25046;DHT22;13044;49.304;12.840;2023-10-31T02:56:03;12.40;99.90
25046;DHT22;13044;49.304;12.840;2023-10-31T02:58:30;12.40;99.90
25046;DHT22;13044;49.304;12.840;2023-10-31T03:00:57;12.40;99.90
25046;DHT22;13044;49.304;12.840;2023-10-31T03:03:24;12.40;99.90
25046;DHT22;13044;49.304;12.840;2023-10-31T03:05:51;12.40;99.90
25046;DHT22;13044;49.304;12.840;2023-10-31T03:08:18;12.40;99.90
25046;DHT22;13044;49.304;12.840;2023-10-31T03:10:48;12.40;99.90
25046;DHT22;13044;49.304;12.840;2023-10-31T03:13:19;12.40;99.90
25046;DHT22;13044;49.304;12.840;2023-10-31T03:15:46;12.40;99.90
25046;DHT22;13044;49.304;12.840;2023-10-31T03:18:14;12.40;99.90
25046;DHT22;13044;49.304;12.840;2023-10-31T03:20:43;12.40;99.90
25046;DHT22;13044;49.304;12.840;2023-10-31T03:23:15;12.40;99.90
25046;DHT22;13044;49.304;12.840;2023-10-31T03:25:42;12.40;99.90
25046;DHT22;13044;49.304;12.840;2023-10-31T03:28:19;12.40;99.90
25046;DHT22;13044;49.304;12.840;2023-10-31T03:30:50;12.40;99.90
25046;DHT22;13044;49.304;12.840;2023-10-31T03:33:17;12.40;99.90
25046;DHT22;13044;49.304;12.840;2023-10-31T03:35:44;12.30;99.90
25046;DHT22;13044;49.304;12.840;2023-10-31T03:38:12;12.30;99.90
25046;DHT22;13044;49.304;12.840;2023-10-31T03:40:39;12.40;99.90
25046;DHT22;13044;49.304;12.840;2023-10-31T03:43:06;12.40;99.90
25046;DHT22;13044;49.304;12.840;2023-10-31T03:45:33;12.40;99.90
25046;DHT22;13044;49.304;12.840;2023-10-31T03:48:00;12.40;99.90
25046;DHT22;13044;49.304;12.840;2023-10-31T03:50:27;12.40;99.90
25046;DHT22;13044;49.304;12.840;2023-10-31T03:52:54;12.30;99.90
25046;DHT22;13044;49.304;12.840;2023-10-31T03:55:20;12.20;99.90
25046;DHT22;13044;49.304;12.840;2023-10-31T03:57:47;12.20;99.90
25046;DHT22;13044;49.304;12.840;2023-10-31T04:00:15;12.20;99.90
25046;DHT22;13044;49.304;12.840;2023-10-31T04:02:42;12.10;99.90
25046;DHT22;13044;49.304;12.840;2023-10-31T04:05:09;12.20;99.90
25046;DHT22;13044;49.304;12.840;2023-10-31T04:07:36;12.20;99.90
25046;DHT22;13044;49.304;12.840;2023-10-31T04:10:05;12.20;99.90
25046;DHT22;13044;49.304;12.840;2023-10-31T04:12:32;12.20;99.90
25046;DHT22;13044;49.304;12.840;2023-10-31T04:15:00;12.10;99.90
25046;DHT22;13044;49.304;12.840;2023-10-31T04:17:27;12.10;99.90
25046;DHT22;13044;49.304;12.840;2023-10-31T04:19:54;12.10;99.90
25046;DHT22;13044;49.304;12.840;2023-10-31T04:22:21;12.10;99.90
25046;DHT22;13044;49.304;12.840;2023-10-31T04:24:47;12.10;99.90
25046;DHT22;13044;49.304;12.840;2023-10-31T04:27:14;12.10;99.90
25046;DHT22;13044;49.304;12.840;2023-10-31T04:29:41;12.10;99.90
25046;DHT22;13044;49.304;12.840;2023-10-31T04:32:08;12.10;99.90
25046;DHT22;13044;49.304;12.840;2023-10-31T04:34:35;12.20;99.90
25046;DHT22;13044;49.304;12.840;2023-10-31T04:37:02;12.20;99.90
25046;DHT22;13044;49.304;12.840;2023-10-31T04:39:29;12.10;99.90
25046;DHT22;13044;49.304;12.840;2023-10-31T04:41:56;12.20;99.90
25046;DHT22;13044;49.304;12.840;2023-10-31T04:44:23;12.10;99.90
25046;DHT22;13044;49.304;12.840;2023-10-31T04:46:50;12.10;99.90
25046;DHT22;13044;49.304;12.840;2023-10-31T04:49:17;12.10;99.90
25046;DHT22;13044;49.304;12.840;2023-10-31T04:51:44;12.00;99.90
25046;DHT22;13044;49.304;12.840;2023-10-31T04:54:11;11.80;99.90
25046;DHT22;13044;49.304;12.840;2023-10-31T04:56:37;11.70;99.90
25046;DHT22;13044;49.304;12.840;2023-10-31T04:59:04;11.70;99.90
25046;DHT22;13044;49.304;12.840;2023-10-31T05:01:32;11.70;99.90
25046;DHT22;13044;49.304;12.840;2023-10-31T05:03:58;11.60;99.90
25046;DHT22;13044;49.304;12.840;2023-10-31T05:06:38;11.60;99.90
25046;DHT22;13044;49.304;12.840;2023-10-31T05:09:05;11.60;99.90
25046;DHT22;13044;49.304;12.840;2023-10-31T05:11:32;11.50;99.90
25046;DHT22;13044;49.304;12.840;2023-10-31T05:14:00;11.40;99.90
25046;DHT22;13044;49.304;12.840;2023-10-31T05:16:27;11.40;99.90
25046;DHT22;13044;49.304;12.840;2023-10-31T05:18:53;11.30;99.90
25046;DHT22;13044;49.304;12.840;2023-10-31T05:21:20;11.30;99.90
25046;DHT22;13044;49.304;12.840;2023-10-31T05:23:47;11.30;99.90
25046;DHT22;13044;49.304;12.840;2023-10-31T05:26:14;11.30;99.90
25046;DHT22;13044;49.304;12.840;2023-10-31T05:28:41;11.30;99.90
25046;DHT22;13044;49.304;12.840;2023-10-31T05:31:08;11.30;99.90
25046;DHT22;13044;49.304;12.840;2023-10-31T05:33:35;11.30;99.90
25046;DHT22;13044;49.304;12.840;2023-10-31T05:36:02;11.30;99.90
25046;DHT22;13044;49.304;12.840;2023-10-31T05:38:29;11.30;99.90
25046;DHT22;13044;49.304;12.840;2023-10-31T05:40:56;11.30;99.90
25046;DHT22;13044;49.304;12.840;2023-10-31T05:43:23;11.20;99.90
25046;DHT22;13044;49.304;12.840;2023-10-31T05:45:49;11.30;99.90
25046;DHT22;13044;49.304;12.840;2023-10-31T05:48:16;11.30;99.90
25046;DHT22;13044;49.304;12.840;2023-10-31T05:50:43;11.30;99.90
25046;DHT22;13044;49.304;12.840;2023-10-31T05:53:10;11.30;99.90
25046;DHT22;13044;49.304;12.840;2023-10-31T05:55:41;11.30;99.90
25046;DHT22;13044;49.304;12.840;2023-10-31T05:58:08;11.20;99.90
25046;DHT22;13044;49.304;12.840;2023-10-31T06:00:35;11.20;99.90
25046;DHT22;13044;49.304;12.840;2023-10-31T06:03:02;11.20;99.90
25046;DHT22;13044;49.304;12.840;2023-10-31T06:05:29;11.20;99.90
25046;DHT22;13044;49.304;12.840;2023-10-31T06:07:56;11.10;99.90
25046;DHT22;13044;49.304;12.840;2023-10-31T06:10:23;11.20;99.90
25046;DHT22;13044;49.304;12.840;2023-10-31T06:12:49;11.20;99.90
25046;DHT22;13044;49.304;12.840;2023-10-31T06:15:16;11.10;99.90
25046;DHT22;13044;49.304;12.840;2023-10-31T06:17:43;11.10;99.90
25046;DHT22;13044;49.304;12.840;2023-10-31T06:20:11;11.20;99.90
25046;DHT22;13044;49.304;12.840;2023-10-31T06:22:38;11.10;99.90
25046;DHT22;13044;49.304;12.840;2023-10-31T06:25:05;11.10;99.90
25046;DHT22;13044;49.304;12.840;2023-10-31T06:27:32;11.10;99.90
25046;DHT22;13044;49.304;12.840;2023-10-31T06:29:59;11.20;99.90
25046;DHT22;13044;49.304;12.840;2023-10-31T06:32:46;11.10;99.90
25046;DHT22;13044;49.304;12.840;2023-10-31T06:35:13;11.10;99.90
25046;DHT22;13044;49.304;12.840;2023-10-31T06:37:40;11.10;99.90
25046;DHT22;13044;49.304;12.840;2023-10-31T06:40:07;11.10;99.90
25046;DHT22;13044;49.304;12.840;2023-10-31T06:42:35;11.10;99.90
25046;DHT22;13044;49.304;12.840;2023-10-31T06:45:03;11.10;99.90
25046;DHT22;13044;49.304;12.840;2023-10-31T06:47:31;11.10;99.90
25046;DHT22;13044;49.304;12.840;2023-10-31T06:49:58;11.00;99.90
25046;DHT22;13044;49.304;12.840;2023-10-31T06:52:25;11.10;99.90
25046;DHT22;13044;49.304;12.840;2023-10-31T06:54:52;11.00;99.90
25046;DHT22;13044;49.304;12.840;2023-10-31T06:57:18;11.10;99.90
25046;DHT22;13044;49.304;12.840;2023-10-31T06:59:46;11.10;99.90
25046;DHT22;13044;49.304;12.840;2023-10-31T07:02:13;11.10;99.90
25046;DHT22;13044;49.304;12.840;2023-10-31T07:04:40;11.10;99.90
25046;DHT22;13044;49.304;12.840;2023-10-31T07:07:07;11.10;99.90
25046;DHT22;13044;49.304;12.840;2023-10-31T07:09:34;11.10;99.90
25046;DHT22;13044;49.304;12.840;2023-10-31T07:12:01;11.10;99.90
25046;DHT22;13044;49.304;12.840;2023-10-31T07:14:28;11.20;99.90
25046;DHT22;13044;49.304;12.840;2023-10-31T07:16:56;11.20;99.90
25046;DHT22;13044;49.304;12.840;2023-10-31T07:19:23;11.20;99.90
25046;DHT22;13044;49.304;12.840;2023-10-31T07:21:50;11.20;99.90
25046;DHT22;13044;49.304;12.840;2023-10-31T07:24:17;11.20;99.90
25046;DHT22;13044;49.304;12.840;2023-10-31T07:26:45;11.20;99.90
25046;DHT22;13044;49.304;12.840;2023-10-31T07:29:12;11.20;99.90
25046;DHT22;13044;49.304;12.840;2023-10-31T07:31:39;11.20;99.90
25046;DHT22;13044;49.304;12.840;2023-10-31T07:34:06;11.20;99.90
25046;DHT22;13044;49.304;12.840;2023-10-31T07:36:33;11.30;99.90
25046;DHT22;13044;49.304;12.840;2023-10-31T07:39:01;11.30;99.90
25046;DHT22;13044;49.304;12.840;2023-10-31T07:41:30;11.40;99.90
25046;DHT22;13044;49.304;12.840;2023-10-31T07:43:57;11.30;99.90
25046;DHT22;13044;49.304;12.840;2023-10-31T07:46:24;11.30;99.90
25046;DHT22;13044;49.304;12.840;2023-10-31T07:48:51;11.40;99.90
25046;DHT22;13044;49.304;12.840;2023-10-31T07:51:18;11.40;99.90
25046;DHT22;13044;49.304;12.840;2023-10-31T07:53:44;11.40;99.90
25046;DHT22;13044;49.304;12.840;2023-10-31T07:56:19;11.40;99.90
25046;DHT22;13044;49.304;12.840;2023-10-31T07:58:49;11.40;99.90
25046;DHT22;13044;49.304;12.840;2023-10-31T08:01:17;11.40;99.90
25046;DHT22;13044;49.304;12.840;2023-10-31T08:03:46;11.30;99.90
25046;DHT22;13044;49.304;12.840;2023-10-31T08:06:14;11.30;99.90
25046;DHT22;13044;49.304;12.840;2023-10-31T08:08:41;11.30;99.90
25046;DHT22;13044;49.304;12.840;2023-10-31T08:11:09;11.40;99.90
25046;DHT22;13044;49.304;12.840;2023-10-31T08:13:37;11.50;99.90
25046;DHT22;13044;49.304;12.840;2023-10-31T08:16:08;11.50;99.90
25046;DHT22;13044;49.304;12.840;2023-10-31T08:18:35;11.50;99.90
25046;DHT22;13044;49.304;12.840;2023-10-31T08:21:05;11.50;99.90
25046;DHT22;13044;49.304;12.840;2023-10-31T08:23:32;11.50;99.90
25046;DHT22;13044;49.304;12.840;2023-10-31T08:26:00;11.40;99.90
25046;DHT22;13044;49.304;12.840;2023-10-31T08:28:27;11.40;99.90
25046;DHT22;13044;49.304;12.840;2023-10-31T08:30:55;11.40;99.90
25046;DHT22;13044;49.304;12.840;2023-10-31T08:33:22;11.40;99.90
25046;DHT22;13044;49.304;12.840;2023-10-31T08:35:49;11.20;99.90
25046;DHT22;13044;49.304;12.840;2023-10-31T08:38:16;11.30;99.90
25046;DHT22;13044;49.304;12.840;2023-10-31T08:40:55;11.30;99.90
25046;DHT22;13044;49.304;12.840;2023-10-31T08:43:22;11.30;99.90
25046;DHT22;13044;49.304;12.840;2023-10-31T08:45:49;11.30;99.90
25046;DHT22;13044;49.304;12.840;2023-10-31T08:48:16;11.20;99.90
25046;DHT22;13044;49.304;12.840;2023-10-31T08:50:43;11.20;99.90
25046;DHT22;13044;49.304;12.840;2023-10-31T08:53:11;11.20;99.90
25046;DHT22;13044;49.304;12.840;2023-10-31T08:55:38;11.20;99.90
25046;DHT22;13044;49.304;12.840;2023-10-31T08:58:05;11.20;99.90
25046;DHT22;13044;49.304;12.840;2023-10-31T09:00:32;11.20;99.90
25046;DHT22;13044;49.304;12.840;2023-10-31T09:02:59;11.30;99.90
25046;DHT22;13044;49.304;12.840;2023-10-31T09:05:26;11.40;99.90
25046;DHT22;13044;49.304;12.840;2023-10-31T09:07:53;11.40;99.90
25046;DHT22;13044;49.304;12.840;2023-10-31T09:10:23;11.40;99.90
25046;DHT22;13044;49.304;12.840;2023-10-31T09:12:50;11.30;99.90
25046;DHT22;13044;49.304;12.840;2023-10-31T09:15:18;11.30;99.90
25046;DHT22;13044;49.304;12.840;2023-10-31T09:17:48;11.30;99.90
25046;DHT22;13044;49.304;12.840;2023-10-31T09:20:16;11.40;99.90
25046;DHT22;13044;49.304;12.840;2023-10-31T09:22:43;11.40;99.90
25046;DHT22;13044;49.304;12.840;2023-10-31T09:25:10;11.40;99.90
25046;DHT22;13044;49.304;12.840;2023-10-31T09:27:40;11.40;99.90
25046;DHT22;13044;49.304;12.840;2023-10-31T09:30:07;11.50;99.90
25046;DHT22;13044;49.304;12.840;2023-10-31T09:32:35;11.50;99.90
25046;DHT22;13044;49.304;12.840;2023-10-31T09:35:02;11.50;99.90
25046;DHT22;13044;49.304;12.840;2023-10-31T09:37:29;11.50;99.90
25046;DHT22;13044;49.304;12.840;2023-10-31T09:39:56;11.40;99.90
25046;DHT22;13044;49.304;12.840;2023-10-31T09:42:23;11.40;99.90
25046;DHT22;13044;49.304;12.840;2023-10-31T09:44:50;11.40;99.90
25046;DHT22;13044;49.304;12.840;2023-10-31T09:47:17;11.40;99.90
25046;DHT22;13044;49.304;12.840;2023-10-31T09:49:44;11.40;99.90
25046;DHT22;13044;49.304;12.840;2023-10-31T09:52:11;11.50;99.90
25046;DHT22;13044;49.304;12.840;2023-10-31T09:54:38;11.50;99.90
25046;DHT22;13044;49.304;12.840;2023-10-31T09:57:08;11.50;99.90
25046;DHT22;13044;49.304;12.840;2023-10-31T09:59:36;11.50;99.90
25046;DHT22;13044;49.304;12.840;2023-10-31T10:02:03;11.50;99.90
25046;DHT22;13044;49.304;12.840;2023-10-31T10:04:30;11.60;99.90
25046;DHT22;13044;49.304;12.840;2023-10-31T10:07:01;11.60;99.90
25046;DHT22;13044;49.304;12.840;2023-10-31T10:09:29;11.70;99.90
25046;DHT22;13044;49.304;12.840;2023-10-31T10:11:57;11.70;99.90
25046;DHT22;13044;49.304;12.840;2023-10-31T10:14:26;11.70;99.90
25046;DHT22;13044;49.304;12.840;2023-10-31T10:16:55;11.70;99.90
25046;DHT22;13044;49.304;12.840;2023-10-31T10:19:22;11.60;99.90
25046;DHT22;13044;49.304;12.840;2023-10-31T10:21:55;11.60;99.90
25046;DHT22;13044;49.304;12.840;2023-10-31T10:24:24;11.70;99.90
25046;DHT22;13044;49.304;12.840;2023-10-31T10:26:51;11.70;99.90
25046;DHT22;13044;49.304;12.840;2023-10-31T10:29:19;11.70;99.90
25046;DHT22;13044;49.304;12.840;2023-10-31T10:31:46;11.60;99.90
25046;DHT22;13044;49.304;12.840;2023-10-31T10:34:15;11.60;99.90
25046;DHT22;13044;49.304;12.840;2023-10-31T10:36:47;11.70;99.90
25046;DHT22;13044;49.304;12.840;2023-10-31T10:39:19;11.80;99.90
25046;DHT22;13044;49.304;12.840;2023-10-31T10:41:54;11.70;99.90
25046;DHT22;13044;49.304;12.840;2023-10-31T10:44:31;11.60;99.90
25046;DHT22;13044;49.304;12.840;2023-10-31T10:47:02;11.60;99.90
25046;DHT22;13044;49.304;12.840;2023-10-31T10:49:33;11.50;99.90
25046;DHT22;13044;49.304;12.840;2023-10-31T10:52:16;11.50;99.90
25046;DHT22;13044;49.304;12.840;2023-10-31T10:55:04;11.50;99.90
25046;DHT22;13044;49.304;12.840;2023-10-31T10:57:55;11.40;99.90
25046;DHT22;13044;49.304;12.840;2023-10-31T11:00:23;11.30;99.90
25046;DHT22;13044;49.304;12.840;2023-10-31T11:02:52;11.40;99.90
25046;DHT22;13044;49.304;12.840;2023-10-31T11:05:20;11.50;99.90
25046;DHT22;13044;49.304;12.840;2023-10-31T11:07:47;11.50;99.90
25046;DHT22;13044;49.304;12.840;2023-10-31T11:10:15;11.60;99.90
25046;DHT22;13044;49.304;12.840;2023-10-31T11:12:46;11.60;99.90
25046;DHT22;13044;49.304;12.840;2023-10-31T11:15:15;11.60;99.90
25046;DHT22;13044;49.304;12.840;2023-10-31T11:17:44;11.50;99.90
25046;DHT22;13044;49.304;12.840;2023-10-31T11:20:14;11.50;99.90
25046;DHT22;13044;49.304;12.840;2023-10-31T11:22:46;11.50;99.90
25046;DHT22;13044;49.304;12.840;2023-10-31T11:25:19;11.50;99.90
25046;DHT22;13044;49.304;12.840;2023-10-31T11:28:18;11.50;99.90
25046;DHT22;13044;49.304;12.840;2023-10-31T11:30:49;11.50;99.90
25046;DHT22;13044;49.304;12.840;2023-10-31T11:33:19;11.60;99.90
25046;DHT22;13044;49.304;12.840;2023-10-31T11:35:50;11.60;99.90
25046;DHT22;13044;49.304;12.840;2023-10-31T11:38:31;11.60;99.90
25046;DHT22;13044;49.304;12.840;2023-10-31T11:41:02;11.50;99.90
25046;DHT22;13044;49.304;12.840;2023-10-31T11:46:18;11.50;99.90
25046;DHT22;13044;49.304;12.840;2023-10-31T11:48:53;11.40;99.90
25046;DHT22;13044;49.304;12.840;2023-10-31T11:51:22;11.40;99.90
25046;DHT22;13044;49.304;12.840;2023-10-31T11:53:49;11.30;99.90
25046;DHT22;13044;49.304;12.840;2023-10-31T11:56:16;11.20;99.90
25046;DHT22;13044;49.304;12.840;2023-10-31T11:58:43;11.20;99.90
25046;DHT22;13044;49.304;12.840;2023-10-31T12:01:11;11.30;99.90
25046;DHT22;13044;49.304;12.840;2023-10-31T12:03:42;11.20;99.90
25046;DHT22;13044;49.304;12.840;2023-10-31T12:06:14;11.20;99.90
25046;DHT22;13044;49.304;12.840;2023-10-31T12:08:43;11.10;99.90
25046;DHT22;13044;49.304;12.840;2023-10-31T12:11:11;11.00;99.90
25046;DHT22;13044;49.304;12.840;2023-10-31T12:16:28;10.90;99.90
25046;DHT22;13044;49.304;12.840;2023-10-31T12:19:04;10.80;99.90
25046;DHT22;13044;49.304;12.840;2023-10-31T12:21:41;10.80;99.90
25046;DHT22;13044;49.304;12.840;2023-10-31T12:24:12;10.80;99.90
25046;DHT22;13044;49.304;12.840;2023-10-31T12:26:40;10.80;99.90
25046;DHT22;13044;49.304;12.840;2023-10-31T12:29:15;10.70;99.90
25046;DHT22;13044;49.304;12.840;2023-10-31T12:31:46;10.70;99.90
25046;DHT22;13044;49.304;12.840;2023-10-31T12:34:17;10.70;99.90
25046;DHT22;13044;49.304;12.840;2023-10-31T12:36:46;10.80;99.90
25046;DHT22;13044;49.304;12.840;2023-10-31T12:39:14;10.80;99.90
25046;DHT22;13044;49.304;12.840;2023-10-31T12:41:43;10.70;99.90
25046;DHT22;13044;49.304;12.840;2023-10-31T12:44:11;10.70;99.90
25046;DHT22;13044;49.304;12.840;2023-10-31T12:46:41;10.70;99.90
25046;DHT22;13044;49.304;12.840;2023-10-31T12:49:12;10.60;99.90
25046;DHT22;13044;49.304;12.840;2023-10-31T12:52:03;10.70;99.90
25046;DHT22;13044;49.304;12.840;2023-10-31T12:54:33;10.60;99.90
25046;DHT22;13044;49.304;12.840;2023-10-31T12:57:08;10.70;99.90
25046;DHT22;13044;49.304;12.840;2023-10-31T12:59:37;10.70;99.90
25046;DHT22;13044;49.304;12.840;2023-10-31T13:02:06;10.70;99.90
25046;DHT22;13044;49.304;12.840;2023-10-31T13:04:35;10.70;99.90
25046;DHT22;13044;49.304;12.840;2023-10-31T13:07:04;10.70;99.90
25046;DHT22;13044;49.304;12.840;2023-10-31T13:09:37;10.70;99.90
25046;DHT22;13044;49.304;12.840;2023-10-31T13:12:09;10.80;99.90
25046;DHT22;13044;49.304;12.840;2023-10-31T13:14:37;10.90;99.90
25046;DHT22;13044;49.304;12.840;2023-10-31T13:17:06;10.90;99.90
25046;DHT22;13044;49.304;12.840;2023-10-31T13:19:34;10.90;99.90
25046;DHT22;13044;49.304;12.840;2023-10-31T13:22:01;11.00;99.90
25046;DHT22;13044;49.304;12.840;2023-10-31T13:24:27;11.00;99.90
25046;DHT22;13044;49.304;12.840;2023-10-31T13:26:54;11.10;99.90
25046;DHT22;13044;49.304;12.840;2023-10-31T13:29:21;11.10;99.90
25046;DHT22;13044;49.304;12.840;2023-10-31T13:31:52;11.10;99.90
25046;DHT22;13044;49.304;12.840;2023-10-31T13:34:19;11.20;99.90
25046;DHT22;13044;49.304;12.840;2023-10-31T13:36:46;11.20;99.90
25046;DHT22;13044;49.304;12.840;2023-10-31T13:39:15;11.20;99.90
25046;DHT22;13044;49.304;12.840;2023-10-31T13:41:42;11.30;99.90
25046;DHT22;13044;49.304;12.840;2023-10-31T13:44:09;11.30;99.90
25046;DHT22;13044;49.304;12.840;2023-10-31T13:46:36;11.40;99.90
25046;DHT22;13044;49.304;12.840;2023-10-31T13:49:03;11.40;99.90
25046;DHT22;13044;49.304;12.840;2023-10-31T13:51:30;11.40;99.90
25046;DHT22;13044;49.304;12.840;2023-10-31T13:53:57;11.40;99.90
25046;DHT22;13044;49.304;12.840;2023-10-31T13:56:24;11.40;99.90
25046;DHT22;13044;49.304;12.840;2023-10-31T13:58:51;11.40;99.90
25046;DHT22;13044;49.304;12.840;2023-10-31T14:01:17;11.30;99.90
25046;DHT22;13044;49.304;12.840;2023-10-31T14:03:51;11.30;99.90
25046;DHT22;13044;49.304;12.840;2023-10-31T14:06:18;11.20;99.90
25046;DHT22;13044;49.304;12.840;2023-10-31T14:08:45;11.20;99.90
25046;DHT22;13044;49.304;12.840;2023-10-31T14:11:12;11.30;99.90
25046;DHT22;13044;49.304;12.840;2023-10-31T14:13:39;11.30;99.90
25046;DHT22;13044;49.304;12.840;2023-10-31T14:16:08;11.20;99.90
25046;DHT22;13044;49.304;12.840;2023-10-31T14:18:35;11.20;99.90
25046;DHT22;13044;49.304;12.840;2023-10-31T14:21:02;11.20;99.90
25046;DHT22;13044;49.304;12.840;2023-10-31T14:23:29;11.10;99.90
25046;DHT22;13044;49.304;12.840;2023-10-31T14:25:57;11.10;99.90
25046;DHT22;13044;49.304;12.840;2023-10-31T14:28:24;11.10;99.90
25046;DHT22;13044;49.304;12.840;2023-10-31T14:30:51;11.20;99.90
25046;DHT22;13044;49.304;12.840;2023-10-31T14:33:20;11.20;99.90
25046;DHT22;13044;49.304;12.840;2023-10-31T14:35:48;11.20;99.90
25046;DHT22;13044;49.304;12.840;2023-10-31T14:38:15;11.20;99.90
25046;DHT22;13044;49.304;12.840;2023-10-31T14:40:42;11.20;99.90
25046;DHT22;13044;49.304;12.840;2023-10-31T14:43:09;11.20;99.90
25046;DHT22;13044;49.304;12.840;2023-10-31T14:45:36;11.20;99.90
25046;DHT22;13044;49.304;12.840;2023-10-31T14:48:03;11.20;99.90
25046;DHT22;13044;49.304;12.840;2023-10-31T14:50:30;11.10;99.90
25046;DHT22;13044;49.304;12.840;2023-10-31T14:52:57;11.10;99.90
25046;DHT22;13044;49.304;12.840;2023-10-31T14:55:24;11.10;99.90
25046;DHT22;13044;49.304;12.840;2023-10-31T14:57:52;11.20;99.90
25046;DHT22;13044;49.304;12.840;2023-10-31T15:00:19;11.20;99.90
25046;DHT22;13044;49.304;12.840;2023-10-31T15:02:46;11.20;99.90
25046;DHT22;13044;49.304;12.840;2023-10-31T15:05:13;11.10;99.90
25046;DHT22;13044;49.304;12.840;2023-10-31T15:07:40;11.10;99.90
25046;DHT22;13044;49.304;12.840;2023-10-31T15:10:08;11.10;99.90
25046;DHT22;13044;49.304;12.840;2023-10-31T15:12:35;11.10;99.90
25046;DHT22;13044;49.304;12.840;2023-10-31T15:15:02;11.20;99.90
25046;DHT22;13044;49.304;12.840;2023-10-31T15:17:29;11.10;99.90
25046;DHT22;13044;49.304;12.840;2023-10-31T15:19:56;11.00;99.90
25046;DHT22;13044;49.304;12.840;2023-10-31T15:22:23;11.00;99.90
25046;DHT22;13044;49.304;12.840;2023-10-31T15:24:50;11.00;99.90
25046;DHT22;13044;49.304;12.840;2023-10-31T15:27:18;11.00;99.90